Time;durP1;ratioP1;P1;durP2;ratioP2;P2;SDS_P1;SDS_P2;PMS_P1;PMS_P2;Temp;Humidity;BMP_temperature;BMP_pressure;BME280_temperature;BME280_humidity;BME280_pressure;Samples;Min_cycle;Max_cycle;Signal;HPM_P1;HPM_P2
2024/02/01 00:01:04;;;;;;;3.17;2.20;;;10.90;98.80;;;;;;5015313;28;20488;-46
2024/02/01 00:03:30;;;;;;;4.55;2.10;;;10.90;98.80;;;;;;5015115;28;20026;-46
2024/02/01 00:05:56;;;;;;;2.72;1.85;;;10.80;98.80;;;;;;5015633;28;20472;-44
2024/02/01 00:08:21;;;;;;;3.55;2.30;;;10.80;98.80;;;;;;5014895;28;20033;-45
2024/02/01 00:10:47;;;;;;;2.67;1.88;;;10.80;98.90;;;;;;5014963;28;20033;-44
2024/02/01 00:13:12;;;;;;;3.92;1.98;;;10.80;98.90;;;;;;5015256;28;20034;-43
2024/02/01 00:15:38;;;;;;;3.38;2.15;;;10.80;98.90;;;;;;5014823;28;20209;-43
2024/02/01 00:18:04;;;;;;;2.63;2.00;;;10.80;98.90;;;;;;5014872;28;20112;-45
2024/02/01 00:20:29;;;;;;;3.15;1.90;;;10.80;98.90;;;;;;5014287;28;20053;-45
2024/02/01 00:22:55;;;;;;;2.58;1.90;;;10.80;98.90;;;;;;5013208;28;20038;-45
2024/02/01 00:25:21;;;;;;;3.03;2.05;;;10.80;99.00;;;;;;5013779;28;20156;-45
2024/02/01 00:27:46;;;;;;;2.25;1.85;;;10.80;99.00;;;;;;5013816;28;20026;-45
2024/02/01 00:30:14;;;;;;;2.78;2.05;;;10.80;99.00;;;;;;5013666;28;20053;-44
2024/02/01 00:32:40;;;;;;;4.30;2.03;;;10.80;99.00;;;;;;5013699;28;20030;-45
2024/02/01 00:35:06;;;;;;;2.72;1.95;;;10.80;99.00;;;;;;5014016;28;20026;-44
2024/02/01 00:37:31;;;;;;;4.00;2.20;;;10.70;99.00;;;;;;5014277;28;20037;-45
2024/02/01 00:39:57;;;;;;;3.00;2.05;;;10.70;99.00;;;;;;5016004;28;20026;-45
2024/02/01 00:42:23;;;;;;;2.55;1.80;;;10.70;99.00;;;;;;5014902;28;20030;-45
2024/02/01 00:44:48;;;;;;;4.03;2.08;;;10.70;99.10;;;;;;5013768;28;20025;-44
2024/02/01 00:47:15;;;;;;;2.88;2.03;;;10.80;99.10;;;;;;5013513;28;20025;-45
2024/02/01 00:49:41;;;;;;;2.13;1.90;;;10.70;99.10;;;;;;5014569;28;20056;-42
2024/02/01 00:52:06;;;;;;;2.83;2.00;;;10.70;99.10;;;;;;5014082;28;20065;-44
2024/02/01 00:54:32;;;;;;;2.17;1.63;;;10.70;99.10;;;;;;5014082;28;20040;-44
2024/02/01 00:56:57;;;;;;;2.55;1.90;;;10.70;99.50;;;;;;5014555;28;20026;-45
2024/02/01 00:59:23;;;;;;;2.80;2.03;;;10.70;99.20;;;;;;5015175;28;20026;-44
2024/02/01 01:01:48;;;;;;;2.40;1.90;;;10.70;99.20;;;;;;5014419;28;20093;-45
2024/02/01 01:04:17;;;;;;;2.45;1.90;;;10.70;99.20;;;;;;5014286;28;20026;-45
2024/02/01 01:06:44;;;;;;;3.35;2.00;;;10.70;99.20;;;;;;5015708;28;20033;-43
2024/02/01 01:09:10;;;;;;;2.05;1.70;;;10.70;99.20;;;;;;5013668;28;20435;-43
2024/02/01 01:11:35;;;;;;;3.03;1.77;;;10.70;99.20;;;;;;5013936;28;20034;-45
2024/02/01 01:14:01;;;;;;;2.42;1.90;;;10.70;99.20;;;;;;5012850;28;20076;-44
2024/02/01 01:16:30;;;;;;;2.30;1.58;;;10.70;99.30;;;;;;5013859;28;20018;-44
2024/02/01 01:18:56;;;;;;;2.53;1.90;;;10.70;99.30;;;;;;5012953;28;20030;-45
2024/02/01 01:21:22;;;;;;;2.50;1.98;;;10.60;99.30;;;;;;5013440;28;20037;-45
2024/02/01 01:23:47;;;;;;;2.25;1.63;;;10.60;99.30;;;;;;5013512;28;20062;-45
2024/02/01 01:26:13;;;;;;;3.03;2.20;;;10.60;99.30;;;;;;5012715;28;20045;-44
2024/02/01 01:28:38;;;;;;;3.13;2.10;;;10.60;99.30;;;;;;5013519;28;20065;-45
2024/02/01 01:31:04;;;;;;;2.22;1.75;;;10.70;99.30;;;;;;5012818;28;20458;-45
2024/02/01 01:33:30;;;;;;;3.38;1.58;;;10.60;99.30;;;;;;5011545;28;20048;-45
2024/02/01 01:35:55;;;;;;;3.20;1.90;;;10.60;99.30;;;;;;5013004;28;20036;-45
2024/02/01 01:38:22;;;;;;;3.25;1.95;;;10.60;99.30;;;;;;5011278;28;20018;-47
2024/02/01 01:40:47;;;;;;;2.45;1.77;;;10.60;99.30;;;;;;5013661;28;20123;-44
2024/02/01 01:43:13;;;;;;;3.05;1.83;;;10.60;99.70;;;;;;5013719;28;20172;-45
2024/02/01 01:45:39;;;;;;;2.88;1.75;;;10.60;99.40;;;;;;5013318;28;20033;-44
2024/02/01 01:48:05;;;;;;;2.33;1.70;;;10.60;99.40;;;;;;5012681;28;20120;-45
2024/02/01 01:50:30;;;;;;;2.20;1.88;;;10.60;99.40;;;;;;5012246;28;20032;-43
2024/02/01 01:52:58;;;;;;;2.63;1.75;;;10.60;99.40;;;;;;5012351;28;20034;-46
2024/02/01 01:55:25;;;;;;;2.00;1.58;;;10.60;99.40;;;;;;5012289;28;20041;-46
2024/02/01 01:57:51;;;;;;;2.35;1.65;;;10.60;99.40;;;;;;5012398;28;20500;-44
2024/02/01 02:00:18;;;;;;;2.05;1.63;;;10.60;99.50;;;;;;5012183;28;20026;-43
2024/02/01 02:02:44;;;;;;;2.75;1.67;;;10.60;99.50;;;;;;5012248;28;20032;-45
2024/02/01 02:05:10;;;;;;;2.63;1.80;;;10.60;99.50;;;;;;5012160;28;20101;-44
2024/02/01 02:07:38;;;;;;;3.25;1.70;;;10.60;99.50;;;;;;5012318;28;20033;-46
2024/02/01 02:10:05;;;;;;;2.22;1.80;;;10.60;99.50;;;;;;5013226;28;20030;-45
2024/02/01 02:12:30;;;;;;;2.75;1.88;;;10.60;99.50;;;;;;5011970;28;20168;-45
2024/02/01 02:14:58;;;;;;;3.20;1.70;;;10.60;99.50;;;;;;5011707;28;20113;-44
2024/02/01 02:17:25;;;;;;;2.50;1.77;;;10.60;99.50;;;;;;5012277;28;20097;-46
2024/02/01 02:19:51;;;;;;;2.55;1.90;;;10.60;99.50;;;;;;5011981;28;20790;-45
2024/02/01 02:22:17;;;;;;;2.92;1.90;;;10.60;99.50;;;;;;5011903;28;20049;-45
2024/02/01 02:24:43;;;;;;;2.20;1.90;;;10.60;99.50;;;;;;5011727;28;20037;-44
2024/02/01 02:27:08;;;;;;;2.63;1.73;;;10.60;99.60;;;;;;5011566;28;20033;-44
2024/02/01 02:29:35;;;;;;;2.70;1.92;;;10.60;99.90;;;;;;5011442;28;20115;-45
2024/02/01 02:32:01;;;;;;;3.45;2.05;;;10.60;99.60;;;;;;5011633;28;20054;-43
2024/02/01 02:34:27;;;;;;;2.33;1.80;;;10.60;99.60;;;;;;5011898;28;20050;-45
2024/02/01 02:36:52;;;;;;;3.28;2.03;;;10.50;99.60;;;;;;5012585;28;20034;-45
2024/02/01 02:39:18;;;;;;;4.03;1.95;;;10.50;99.60;;;;;;5012550;28;20025;-44
2024/02/01 02:41:44;;;;;;;2.20;1.90;;;10.60;99.60;;;;;;5011856;28;20072;-45
2024/02/01 02:44:11;;;;;;;3.55;1.98;;;10.50;99.60;;;;;;5012391;28;20037;-45
2024/02/01 02:46:37;;;;;;;3.38;2.30;;;10.50;99.90;;;;;;5012194;28;20110;-45
2024/02/01 02:49:03;;;;;;;2.28;1.70;;;10.50;99.60;;;;;;5012468;28;20037;-44
2024/02/01 02:51:29;;;;;;;2.53;2.15;;;10.50;99.60;;;;;;5012004;28;20030;-45
2024/02/01 02:53:54;;;;;;;2.53;1.70;;;10.50;99.60;;;;;;5012355;28;20030;-45
2024/02/01 02:56:21;;;;;;;2.30;1.90;;;10.50;99.70;;;;;;5012399;28;20026;-43
2024/02/01 02:58:47;;;;;;;3.28;1.90;;;10.50;99.60;;;;;;5012566;28;20026;-44
2024/02/01 03:01:13;;;;;;;3.08;1.85;;;10.50;99.60;;;;;;5012365;28;20480;-45
2024/02/01 03:03:41;;;;;;;2.40;1.70;;;10.50;99.60;;;;;;5012355;28;20034;-43
2024/02/01 03:06:10;;;;;;;3.13;2.20;;;10.50;99.70;;;;;;5011771;28;20029;-45
2024/02/01 03:08:39;;;;;;;2.70;2.10;;;10.50;99.70;;;;;;5012344;28;20026;-45
2024/02/01 03:11:10;;;;;;;2.63;1.95;;;10.50;99.70;;;;;;5011870;28;20042;-44
2024/02/01 03:13:39;;;;;;;3.05;1.88;;;10.50;99.90;;;;;;5012036;28;20025;-44
2024/02/01 03:16:16;;;;;;;5.43;1.92;;;10.50;99.70;;;;;;5012549;28;20108;-45
2024/02/01 03:18:44;;;;;;;4.25;2.60;;;10.50;99.70;;;;;;5012423;28;20369;-45
2024/02/01 03:21:11;;;;;;;3.90;2.00;;;10.50;99.70;;;;;;5012005;28;20053;-45
2024/02/01 03:23:36;;;;;;;3.88;1.63;;;10.50;99.70;;;;;;5012396;28;20117;-45
2024/02/01 03:26:02;;;;;;;2.75;1.80;;;10.50;99.70;;;;;;5011257;28;20127;-46
2024/02/01 03:28:30;;;;;;;2.25;1.60;;;10.50;99.70;;;;;;5012625;28;20034;-44
2024/02/01 03:30:56;;;;;;;3.28;1.80;;;10.50;99.70;;;;;;5011818;28;20034;-44
2024/02/01 03:33:22;;;;;;;2.47;1.80;;;10.50;99.80;;;;;;5011968;28;20018;-45
2024/02/01 03:35:49;;;;;;;4.65;2.10;;;10.50;99.70;;;;;;5010949;28;20563;-44
2024/02/01 03:38:15;;;;;;;3.38;1.90;;;10.50;99.70;;;;;;5011262;28;20080;-43
2024/02/01 03:40:44;;;;;;;3.75;2.47;;;10.50;99.70;;;;;;5011434;28;20030;-45
2024/02/01 03:43:11;;;;;;;2.85;1.90;;;10.50;99.80;;;;;;5012696;28;20492;-45
2024/02/01 03:45:38;;;;;;;2.92;1.95;;;10.50;99.80;;;;;;5010980;28;20038;-44
2024/02/01 03:48:04;;;;;;;3.60;2.05;;;10.50;99.80;;;;;;5011920;28;20289;-46
2024/02/01 03:50:29;;;;;;;1.98;1.63;;;10.50;99.80;;;;;;5011292;28;20080;-44
2024/02/01 03:52:55;;;;;;;2.25;1.38;;;10.50;99.80;;;;;;5012327;28;20499;-45
2024/02/01 03:55:21;;;;;;;2.63;1.63;;;10.50;99.90;;;;;;5011447;28;20018;-43
2024/02/01 03:57:47;;;;;;;2.45;2.00;;;10.50;99.80;;;;;;5012736;28;20438;-44
2024/02/01 04:00:30;;;;;;;2.67;1.95;;;10.50;99.80;;;;;;5016036;28;20049;-44
2024/02/01 04:03:03;;;;;;;2.35;1.80;;;10.50;99.80;;;;;;5015864;28;20037;-45
2024/02/01 04:05:36;;;;;;;1.97;1.77;;;10.50;99.80;;;;;;5015307;28;20026;-45
2024/02/01 04:08:06;;;;;;;2.42;1.50;;;10.40;99.90;;;;;;5015817;28;20256;-46
2024/02/01 04:10:32;;;;;;;2.58;1.98;;;10.40;99.80;;;;;;5015378;28;20022;-45
2024/02/01 04:12:58;;;;;;;2.78;1.70;;;10.40;99.80;;;;;;5015079;28;20034;-45
2024/02/01 04:15:24;;;;;;;2.05;1.70;;;10.40;99.80;;;;;;5015744;28;20419;-46
2024/02/01 04:17:50;;;;;;;3.10;1.88;;;10.40;99.80;;;;;;5015275;28;20033;-45
2024/02/01 04:20:15;;;;;;;2.60;1.80;;;10.40;99.80;;;;;;5014752;28;20030;-45
2024/02/01 04:22:41;;;;;;;4.22;2.20;;;10.40;99.80;;;;;;5015553;28;20041;-45
2024/02/01 04:25:08;;;;;;;2.75;1.67;;;10.40;99.80;;;;;;5014984;28;20119;-44
2024/02/01 04:27:35;;;;;;;2.60;1.83;;;10.40;99.80;;;;;;5014870;28;20030;-44
2024/02/01 04:30:04;;;;;;;1.63;1.35;;;10.40;99.90;;;;;;5014026;28;20022;-46
2024/02/01 04:32:29;;;;;;;3.10;1.75;;;10.40;99.90;;;;;;5015211;28;20033;-45
2024/02/01 04:34:55;;;;;;;2.70;1.70;;;10.40;99.90;;;;;;5014814;28;20400;-46
2024/02/01 04:37:22;;;;;;;2.75;1.58;;;10.40;99.90;;;;;;5014184;28;20050;-44
2024/02/01 04:39:49;;;;;;;2.30;1.80;;;10.40;99.90;;;;;;5013585;28;20076;-46
2024/02/01 04:42:15;;;;;;;2.28;1.60;;;10.40;99.90;;;;;;5013763;28;20431;-45
2024/02/01 04:44:46;;;;;;;2.78;1.40;;;10.40;99.90;;;;;;5013738;28;20072;-46
2024/02/01 04:47:12;;;;;;;1.80;1.65;;;10.40;99.90;;;;;;5013705;28;20113;-45
2024/02/01 04:49:38;;;;;;;2.47;1.52;;;10.40;99.90;;;;;;5013300;28;20117;-45
2024/02/01 04:52:06;;;;;;;2.70;1.60;;;10.50;99.90;;;;;;5013322;28;20104;-44
2024/02/01 04:54:34;;;;;;;2.75;1.80;;;10.40;99.90;;;;;;5013688;28;20433;-44
2024/02/01 04:57:03;;;;;;;2.80;1.70;;;10.40;99.90;;;;;;5013675;28;20480;-44
2024/02/01 04:59:29;;;;;;;2.55;1.90;;;10.40;99.90;;;;;;5013435;28;20054;-46
2024/02/01 05:01:55;;;;;;;1.92;1.58;;;10.40;99.90;;;;;;5013596;28;20026;-45
2024/02/01 05:04:21;;;;;;;2.15;1.60;;;10.40;99.90;;;;;;5014181;28;20041;-45
2024/02/01 05:06:47;;;;;;;2.30;1.50;;;10.40;99.90;;;;;;5013258;28;20058;-44
2024/02/01 05:09:25;;;;;;;1.92;1.40;;;10.40;99.90;;;;;;5012756;28;20018;-46
2024/02/01 05:12:01;;;;;;;2.30;1.50;;;10.40;99.90;;;;;;5013845;28;20113;-46
2024/02/01 05:14:27;;;;;;;2.08;1.45;;;10.40;99.90;;;;;;5013620;28;20562;-44
2024/02/01 05:16:53;;;;;;;1.70;1.60;;;10.40;99.90;;;;;;5013066;28;20069;-45
2024/02/01 05:19:19;;;;;;;2.92;1.80;;;10.40;99.90;;;;;;5012960;28;20096;-44
2024/02/01 05:21:45;;;;;;;3.33;1.80;;;10.40;99.90;;;;;;5013362;28;20109;-44
2024/02/01 05:24:13;;;;;;;1.67;1.42;;;10.40;99.90;;;;;;5012482;28;20467;-43
2024/02/01 05:26:51;;;;;;;2.38;2.00;;;10.40;99.90;;;;;;5012845;28;20022;-45
2024/02/01 05:29:24;;;;;;;2.08;1.63;;;10.40;99.90;;;;;;5012893;28;20530;-44
2024/02/01 05:31:52;;;;;;;2.55;1.77;;;10.40;99.90;;;;;;5013134;28;20036;-45
2024/02/01 05:34:19;;;;;;;2.42;1.77;;;10.40;99.90;;;;;;5013145;28;20022;-44
2024/02/01 05:36:46;;;;;;;2.90;1.77;;;10.40;99.90;;;;;;5012601;28;20029;-45
2024/02/01 05:39:25;;;;;;;2.13;1.42;;;10.40;99.90;;;;;;5013809;28;20408;-43
2024/02/01 05:41:55;;;;;;;2.25;1.48;;;10.40;99.90;;;;;;5013450;28;20377;-45
2024/02/01 05:44:22;;;;;;;1.70;1.58;;;10.40;99.90;;;;;;5014143;28;20579;-46
2024/02/01 05:46:48;;;;;;;2.50;1.50;;;10.40;99.90;;;;;;5013636;28;20036;-45
2024/02/01 05:49:18;;;;;;;2.47;1.73;;;10.40;99.90;;;;;;5011279;28;20033;-46
2024/02/01 05:51:51;;;;;;;2.72;1.50;;;10.40;99.90;;;;;;5013510;28;20056;-45
2024/02/01 05:54:20;;;;;;;1.77;1.50;;;10.40;99.90;;;;;;5012667;28;20523;-46
2024/02/01 05:56:47;;;;;;;2.33;1.67;;;10.40;99.90;;;;;;5014196;28;20071;-46
2024/02/01 05:59:17;;;;;;;1.73;1.25;;;10.40;99.90;;;;;;5012591;28;20060;-44
2024/02/01 06:01:44;;;;;;;1.70;1.50;;;10.40;99.90;;;;;;5012059;28;20022;-45
2024/02/01 06:04:10;;;;;;;2.50;1.40;;;10.40;99.90;;;;;;5013656;28;20112;-44
2024/02/01 06:06:48;;;;;;;2.38;1.73;;;10.40;99.90;;;;;;5012725;28;20112;-45
2024/02/01 06:09:15;;;;;;;1.88;1.42;;;10.40;99.90;;;;;;5012072;28;20049;-44
2024/02/01 06:11:48;;;;;;;1.90;1.50;;;10.40;99.90;;;;;;5012252;28;20236;-46
2024/02/01 06:14:14;;;;;;;2.53;1.40;;;10.40;99.90;;;;;;5011786;28;20026;-45
2024/02/01 06:16:40;;;;;;;2.38;1.38;;;10.40;99.90;;;;;;5011706;28;20034;-45
2024/02/01 06:19:07;;;;;;;2.83;1.70;;;10.40;99.90;;;;;;5011773;28;20066;-46
2024/02/01 06:21:33;;;;;;;2.33;1.30;;;10.40;99.90;;;;;;5011869;28;20034;-44
2024/02/01 06:23:59;;;;;;;2.78;1.50;;;10.30;99.90;;;;;;5012550;28;20026;-45
2024/02/01 06:26:27;;;;;;;2.75;1.45;;;10.30;99.90;;;;;;5012199;28;20141;-43
2024/02/01 06:28:59;;;;;;;2.03;1.30;;;10.40;99.90;;;;;;5013252;28;20038;-44
2024/02/01 06:31:26;;;;;;;1.60;1.33;;;10.30;99.90;;;;;;5013938;28;20049;-45
2024/02/01 06:33:52;;;;;;;1.83;1.60;;;10.30;99.90;;;;;;5012374;28;20028;-46
2024/02/01 06:36:19;;;;;;;1.77;1.40;;;10.30;99.90;;;;;;5012843;28;20018;-46
2024/02/01 06:44:21;;;;;;;2.38;1.50;;;10.30;99.90;;;;;;5012818;28;20157;-45
2024/02/01 06:49:39;;;;;;;1.58;1.30;;;10.30;99.90;;;;;;5011917;28;20053;-45
2024/02/01 06:55:14;;;;;;;3.20;1.60;;;10.30;99.90;;;;;;5011706;28;20281;-44
2024/02/01 06:57:53;;;;;;;1.30;1.20;;;10.30;99.90;;;;;;5010335;28;20018;-44
2024/02/01 07:03:13;;;;;;;1.13;1.02;;;10.30;99.90;;;;;;5013002;28;20084;-45
2024/02/01 07:08:26;;;;;;;1.70;1.30;;;10.40;99.90;;;;;;5012630;28;20109;-43
2024/02/01 07:11:14;;;;;;;2.63;1.30;;;10.30;99.90;;;;;;5011791;28;20022;-46
2024/02/01 07:16:24;;;;;;;1.92;1.38;;;10.30;99.90;;;;;;5012076;28;20369;-46
2024/02/01 07:19:23;;;;;;;1.83;1.25;;;10.30;99.90;;;;;;5012142;28;20030;-45
2024/02/01 07:24:46;;;;;;;3.38;1.33;;;10.40;99.90;;;;;;5011948;28;20044;-44
2024/02/01 07:57:51;;;;;;;1.80;1.30;;;10.50;99.90;;;;;;5014687;28;20549;-45
2024/02/01 08:00:19;;;;;;;1.65;1.15;;;10.50;99.90;;;;;;5014317;28;20040;-46
2024/02/01 08:03:00;;;;;;;1.75;1.30;;;10.50;99.90;;;;;;5014365;28;20026;-45
2024/02/01 08:08:11;;;;;;;2.03;1.30;;;10.50;99.90;;;;;;5014640;28;20114;-46
2024/02/01 08:10:36;;;;;;;2.05;1.38;;;10.60;99.90;;;;;;5014233;28;20038;-46
2024/02/01 08:13:05;;;;;;;1.23;1.13;;;10.70;99.90;;;;;;5013893;28;20480;-46
2024/02/01 08:15:37;;;;;;;0.77;0.77;;;10.70;99.90;;;;;;5013965;28;20034;-45
2024/02/01 08:18:08;;;;;;;1.50;1.10;;;10.80;99.90;;;;;;5014360;28;20018;-44
2024/02/01 08:20:40;;;;;;;1.20;1.10;;;10.90;99.90;;;;;;5014512;28;20025;-44
2024/02/01 08:23:07;;;;;;;1.50;1.13;;;10.90;99.90;;;;;;5014014;28;20030;-46
2024/02/01 08:25:33;;;;;;;1.40;1.20;;;11.10;99.90;;;;;;5013679;28;20069;-46
2024/02/01 08:28:00;;;;;;;1.92;1.00;;;11.10;99.90;;;;;;5015215;28;20032;-44
2024/02/01 08:30:29;;;;;;;2.13;1.30;;;11.20;99.90;;;;;;5014496;28;20037;-44
2024/02/01 08:33:02;;;;;;;1.65;1.00;;;11.40;99.90;;;;;;5013633;28;20029;-45
2024/02/01 08:35:33;;;;;;;2.35;1.10;;;11.50;99.90;;;;;;5014484;28;20124;-46
2024/02/01 08:38:02;;;;;;;2.00;1.20;;;11.50;99.90;;;;;;5014354;28;20021;-46
2024/02/01 08:40:28;;;;;;;1.40;1.27;;;11.70;99.90;;;;;;5015455;28;20375;-46
2024/02/01 08:43:01;;;;;;;1.63;1.20;;;11.70;99.70;;;;;;5015507;28;20022;-45
2024/02/01 08:45:28;;;;;;;1.52;1.00;;;11.80;99.60;;;;;;5014383;28;20480;-46
2024/02/01 08:48:02;;;;;;;1.77;1.00;;;12.00;99.40;;;;;;5013348;28;20481;-44
2024/02/01 08:50:33;;;;;;;1.40;0.90;;;12.00;99.20;;;;;;5013298;28;20103;-46
2024/02/01 08:52:59;;;;;;;0.80;0.80;;;12.10;99.10;;;;;;5013491;28;20040;-45
2024/02/01 08:55:25;;;;;;;1.42;0.90;;;12.20;98.90;;;;;;5014034;28;20381;-45
2024/02/01 08:57:52;;;;;;;1.70;1.00;;;12.30;98.80;;;;;;5013208;28;20025;-45
2024/02/01 09:00:21;;;;;;;2.53;1.17;;;12.40;98.80;;;;;;5013167;28;20061;-45
2024/02/01 09:03:06;;;;;;;2.38;1.20;;;12.50;98.90;;;;;;5013672;28;20089;-43
2024/02/01 09:05:37;;;;;;;;;;;12.60;98.80;;;;;;5014216;28;20567;-40
2024/02/01 09:08:05;;;;;;;1.42;1.20;;;12.60;98.60;;;;;;5014696;28;19906;-45
2024/02/01 09:10:31;;;;;;;1.00;0.90;;;12.70;98.50;;;;;;5014019;28;20088;-45
2024/02/01 09:12:57;;;;;;;3.30;1.30;;;12.80;98.40;;;;;;5013657;28;20030;-45
2024/02/01 09:15:23;;;;;;;1.70;1.02;;;12.90;98.30;;;;;;5012639;28;20384;-45
2024/02/01 09:17:49;;;;;;;2.13;1.45;;;12.90;98.10;;;;;;5013562;28;20076;-45
2024/02/01 09:20:18;;;;;;;1.92;1.20;;;13.00;98.00;;;;;;5012798;28;20030;-45
2024/02/01 09:22:49;;;;;;;1.48;1.00;;;13.00;97.90;;;;;;5012907;28;20079;-45
2024/02/01 09:25:16;;;;;;;2.45;1.50;;;13.10;97.80;;;;;;5013421;28;20037;-45
2024/02/01 09:27:45;;;;;;;1.98;1.30;;;13.20;97.60;;;;;;5014273;28;20113;-44
2024/02/01 09:30:11;;;;;;;2.10;1.10;;;13.20;97.50;;;;;;5013427;28;20030;-45
2024/02/01 09:32:41;;;;;;;1.10;0.98;;;13.30;97.40;;;;;;5013079;28;20152;-45
2024/02/01 09:35:07;;;;;;;1.40;1.10;;;13.30;97.30;;;;;;5013483;28;20022;-44
2024/02/01 09:37:33;;;;;;;1.25;0.98;;;13.40;97.10;;;;;;5013471;28;20025;-45
2024/02/01 09:40:00;;;;;;;2.47;1.27;;;13.40;97.10;;;;;;5013740;28;20037;-42
2024/02/01 09:42:26;;;;;;;2.00;1.27;;;13.50;97.00;;;;;;5013229;28;20026;-45
2024/02/01 09:44:56;;;;;;;1.55;1.10;;;13.50;96.90;;;;;;5012411;28;20080;-45
2024/02/01 09:47:24;;;;;;;2.03;1.00;;;13.50;96.80;;;;;;5012712;28;20030;-45
2024/02/01 09:49:52;;;;;;;2.75;1.20;;;13.60;96.80;;;;;;5013256;28;20022;-45
2024/02/01 09:52:18;;;;;;;1.80;1.27;;;13.60;96.70;;;;;;5012109;28;20022;-45
2024/02/01 09:54:46;;;;;;;1.48;1.20;;;13.70;96.60;;;;;;5011509;28;20080;-45
2024/02/01 09:57:15;;;;;;;1.58;1.10;;;13.70;96.50;;;;;;5013212;28;20121;-43
2024/02/01 09:59:42;;;;;;;1.42;1.10;;;13.80;96.40;;;;;;5012681;28;20033;-45
2024/02/01 10:02:12;;;;;;;1.30;0.90;;;13.80;96.30;;;;;;5013571;28;20499;-45
2024/02/01 10:04:38;;;;;;;2.38;1.08;;;13.90;96.30;;;;;;5011884;28;20085;-45
2024/02/01 10:07:04;;;;;;;1.42;1.10;;;13.90;96.20;;;;;;5012707;28;20384;-44
2024/02/01 10:09:30;;;;;;;1.73;1.00;;;13.90;96.10;;;;;;5012073;28;20550;-45
2024/02/01 10:11:56;;;;;;;1.42;0.90;;;13.90;96.00;;;;;;5013698;28;20030;-42
2024/02/01 10:14:35;;;;;;;1.83;1.30;;;14.00;96.00;;;;;;5012224;28;20531;-45
2024/02/01 10:17:05;;;;;;;2.03;0.90;;;14.00;95.90;;;;;;5012833;28;20021;-45
2024/02/01 10:19:32;;;;;;;1.85;1.00;;;14.00;95.80;;;;;;5012362;28;20029;-44
2024/02/01 10:22:08;;;;;;;2.28;0.93;;;14.10;95.80;;;;;;5011896;28;20033;-44
2024/02/01 10:24:44;;;;;;;2.28;1.00;;;14.10;95.70;;;;;;5011572;28;20048;-41
2024/02/01 10:27:13;;;;;;;1.13;0.90;;;14.10;95.70;;;;;;5012349;28;20030;-45
2024/02/01 10:29:42;;;;;;;1.63;1.17;;;14.20;95.70;;;;;;5012831;28;20029;-45
2024/02/01 10:32:12;;;;;;;2.15;1.13;;;14.20;95.60;;;;;;5013094;28;20017;-45
2024/02/01 10:34:45;;;;;;;1.63;1.00;;;14.30;95.50;;;;;;5012231;28;20022;-46
2024/02/01 10:37:13;;;;;;;2.13;0.95;;;14.30;95.50;;;;;;5012936;28;20022;-44
2024/02/01 10:39:41;;;;;;;1.38;0.90;;;14.40;95.40;;;;;;5012392;28;20034;-44
2024/02/01 10:42:11;;;;;;;2.00;1.00;;;14.40;95.40;;;;;;5011632;28;20026;-45
2024/02/01 10:44:41;;;;;;;1.10;0.85;;;14.40;95.30;;;;;;5011558;28;20405;-45
2024/02/01 10:47:15;;;;;;;3.25;0.70;;;14.50;95.20;;;;;;5012330;28;20021;-45
2024/02/01 10:49:52;;;;;;;1.00;0.85;;;14.50;95.20;;;;;;5012167;28;20033;-45
2024/02/01 10:52:21;;;;;;;1.00;0.80;;;14.60;95.20;;;;;;5011761;28;20464;-46
2024/02/01 10:54:51;;;;;;;1.35;0.70;;;14.60;95.10;;;;;;5011446;28;20384;-43
2024/02/01 10:57:18;;;;;;;1.20;0.80;;;14.60;95.00;;;;;;5012469;28;20022;-43
2024/02/01 10:59:47;;;;;;;1.80;0.80;;;14.70;95.00;;;;;;5012057;28;20018;-45
2024/02/01 11:02:15;;;;;;;1.42;0.82;;;14.70;94.90;;;;;;5011356;28;20476;-45
2024/02/01 11:04:45;;;;;;;1.65;0.95;;;14.80;94.80;;;;;;5011623;28;20488;-45
2024/02/01 11:07:19;;;;;;;1.88;1.00;;;14.80;94.70;;;;;;5014926;28;20030;-45
2024/02/01 11:09:49;;;;;;;1.13;0.90;;;14.90;94.70;;;;;;5016410;28;20033;-45
2024/02/01 11:12:24;;;;;;;1.40;0.80;;;14.90;94.60;;;;;;5015853;28;20034;-46
2024/02/01 11:14:51;;;;;;;0.80;0.80;;;14.90;94.50;;;;;;5015115;28;20065;-45
2024/02/01 11:17:21;;;;;;;1.13;0.90;;;15.00;94.50;;;;;;5015845;28;20038;-45
2024/02/01 11:19:50;;;;;;;1.20;0.68;;;15.00;94.40;;;;;;5015250;28;20018;-44
2024/02/01 11:22:18;;;;;;;1.52;0.93;;;15.00;94.40;;;;;;5015246;28;20033;-44
2024/02/01 11:24:44;;;;;;;1.60;0.80;;;15.00;94.40;;;;;;5015748;28;20395;-45
2024/02/01 11:27:18;;;;;;;1.98;1.17;;;15.00;94.40;;;;;;5014848;28;20050;-45
2024/02/01 11:29:50;;;;;;;1.20;1.00;;;15.00;94.40;;;;;;5014927;28;20547;-45
2024/02/01 11:32:17;;;;;;;1.35;0.70;;;15.00;94.40;;;;;;5015278;28;20171;-44
2024/02/01 11:34:49;;;;;;;0.93;0.75;;;15.00;94.40;;;;;;5014840;28;20026;-42
2024/02/01 11:37:16;;;;;;;0.85;0.70;;;15.00;94.40;;;;;;5014846;28;20092;-43
2024/02/01 11:39:46;;;;;;;1.48;0.82;;;15.00;94.30;;;;;;5014614;28;20025;-45
2024/02/01 11:42:15;;;;;;;0.90;0.75;;;15.00;94.30;;;;;;5014769;28;20088;-44
2024/02/01 11:44:42;;;;;;;0.95;0.77;;;15.00;94.20;;;;;;5014605;28;20033;-46
2024/02/01 11:47:09;;;;;;;1.08;0.90;;;15.00;94.20;;;;;;5014808;28;20746;-44
2024/02/01 11:49:39;;;;;;;0.85;0.80;;;15.10;94.20;;;;;;5015043;28;20034;-45
2024/02/01 11:52:15;;;;;;;1.30;0.88;;;15.10;94.20;;;;;;5014481;28;20026;-45
2024/02/01 11:54:49;;;;;;;1.23;0.80;;;15.10;94.10;;;;;;5015315;28;20022;-44
2024/02/01 11:57:17;;;;;;;1.15;1.00;;;15.10;94.40;;;;;;5015163;28;20457;-46
2024/02/01 11:59:47;;;;;;;0.80;0.60;;;15.10;94.10;;;;;;5015602;28;20428;-46
2024/02/01 12:02:13;;;;;;;0.77;0.55;;;15.10;94.20;;;;;;5015418;28;20057;-46
2024/02/01 12:04:41;;;;;;;0.85;0.50;;;15.10;94.40;;;;;;5014945;28;20034;-46
2024/02/01 12:07:08;;;;;;;0.82;0.57;;;15.20;94.50;;;;;;5015848;28;20114;-45
2024/02/01 12:09:36;;;;;;;0.52;0.50;;;15.20;94.50;;;;;;5014458;28;20025;-45
2024/02/01 12:12:05;;;;;;;1.33;0.60;;;15.20;94.50;;;;;;5014835;28;20026;-45
2024/02/01 12:14:32;;;;;;;1.13;0.52;;;15.20;94.50;;;;;;5015769;28;20018;-46
2024/02/01 12:17:01;;;;;;;0.80;0.60;;;15.30;94.50;;;;;;5014009;28;20018;-45
2024/02/01 12:19:32;;;;;;;1.08;0.80;;;15.30;94.50;;;;;;5014063;28;20080;-46
2024/02/01 12:21:57;;;;;;;1.02;0.40;;;15.30;94.50;;;;;;5014868;28;20030;-45
2024/02/01 12:24:27;;;;;;;1.27;0.70;;;15.30;94.50;;;;;;5015754;28;20049;-44
2024/02/01 12:26:53;;;;;;;1.15;0.90;;;15.30;94.60;;;;;;5014993;28;20033;-45
2024/02/01 12:29:21;;;;;;;0.85;0.73;;;15.30;94.70;;;;;;5015573;28;20029;-45
2024/02/01 12:31:49;;;;;;;1.17;0.70;;;15.30;94.70;;;;;;5014286;28;20022;-45
2024/02/01 12:34:15;;;;;;;1.58;0.93;;;15.30;95.10;;;;;;5013916;28;20075;-45
2024/02/01 12:36:43;;;;;;;1.23;0.88;;;15.40;94.80;;;;;;5014231;28;20037;-45
2024/02/01 12:39:09;;;;;;;1.33;0.90;;;15.40;94.70;;;;;;5014381;28;20024;-43
2024/02/01 12:41:34;;;;;;;1.13;0.75;;;15.40;94.70;;;;;;5016012;28;20029;-45
2024/02/01 12:44:04;;;;;;;1.58;0.90;;;15.40;94.70;;;;;;5015573;28;20289;-44
2024/02/01 12:46:29;;;;;;;1.15;0.82;;;15.40;94.60;;;;;;5015546;28;20076;-44
2024/02/01 12:48:55;;;;;;;1.23;0.75;;;15.40;94.60;;;;;;5014434;28;20030;-42
2024/02/01 12:51:26;;;;;;;1.42;0.80;;;15.40;94.60;;;;;;5014471;28;20030;-45
2024/02/01 12:53:57;;;;;;;1.63;0.90;;;15.50;94.60;;;;;;5015900;28;20437;-44
2024/02/01 12:56:23;;;;;;;1.15;0.70;;;15.40;94.50;;;;;;5013910;28;20030;-44
2024/02/01 12:58:50;;;;;;;0.80;0.70;;;15.40;94.50;;;;;;5014244;28;20026;-45
2024/02/01 13:01:16;;;;;;;1.27;0.90;;;15.50;94.50;;;;;;5014442;28;20018;-45
2024/02/01 13:03:42;;;;;;;0.90;0.65;;;15.40;94.40;;;;;;5015264;28;20091;-45
2024/02/01 13:06:08;;;;;;;1.00;0.82;;;15.40;94.40;;;;;;5013481;28;20108;-45
2024/02/01 13:08:39;;;;;;;0.95;0.70;;;15.40;94.40;;;;;;5014066;28;20018;-44
2024/02/01 13:11:09;;;;;;;1.25;0.80;;;15.50;94.40;;;;;;5013055;28;20025;-45
2024/02/01 13:13:35;;;;;;;1.02;0.88;;;15.50;94.40;;;;;;5012867;28;20026;-45
2024/02/01 13:16:02;;;;;;;1.33;0.70;;;15.40;94.30;;;;;;5011915;28;20032;-45
2024/02/01 13:18:27;;;;;;;1.08;0.60;;;15.40;94.30;;;;;;5013268;28;20117;-45
2024/02/01 13:20:55;;;;;;;0.73;0.70;;;15.50;94.30;;;;;;5012831;28;20548;-44
2024/02/01 13:23:22;;;;;;;1.10;0.70;;;15.40;94.30;;;;;;5013049;28;20022;-45
2024/02/01 13:25:48;;;;;;;1.58;0.80;;;15.40;94.30;;;;;;5012754;28;20042;-44
2024/02/01 13:28:14;;;;;;;1.33;1.02;;;15.50;94.30;;;;;;5013222;28;20029;-44
2024/02/01 13:30:43;;;;;;;1.05;0.80;;;15.50;94.30;;;;;;5012413;28;20060;-45
2024/02/01 13:33:13;;;;;;;1.05;0.90;;;15.50;94.30;;;;;;5013256;28;20112;-45
2024/02/01 13:35:38;;;;;;;1.30;0.88;;;15.50;94.30;;;;;;5013408;28;20044;-42
2024/02/01 13:38:08;;;;;;;1.67;1.10;;;15.50;94.60;;;;;;5013804;28;20123;-44
2024/02/01 13:40:33;;;;;;;1.98;1.05;;;15.50;94.20;;;;;;5012087;28;20114;-44
2024/02/01 13:43:00;;;;;;;2.03;1.13;;;15.50;94.20;;;;;;5013981;28;20061;-45
2024/02/01 13:45:26;;;;;;;1.77;1.00;;;15.50;94.20;;;;;;5013761;28;20080;-45
2024/02/01 13:47:53;;;;;;;1.50;0.80;;;15.50;94.20;;;;;;5012960;28;20029;-45